Portada
METAR-TAF:

METAR-TAF

Aeropuertos :

Aeropuerto Internacional de Shiraz

Shiraz, Irán

latitud: 29-32N, longitud: 052-35E, altitud: 1486 m

Observación

El informe se hizo hace 30 minutos, a las 11:00 UTC
Viento 4 kt del noreste
Temperatura 26°C
Humedad 7%
Presión 1016 hPa
Visibilidad 10 km o más
sin nubes por debajo de 1500 m y sin presencia de cumulonimbus.

METAR: OISS 161100Z 04004KT CAVOK 26/M12 Q1015 A3000

Hora: 16:00 (11:30 UTC)

Pronóstico

El informe se hizo hace 6 horas y 20 minutos, a las 05:10 UTC
Pronóstico válido del 16 a las 06 UTC al 17 a las 12 UTC
Viento 8 kt del oeste
Visibilidad: 8000 m
Escasas nubes a una altura de 4000 ft
Temporalmente
del 16 a las 09 UTC al 16 a las 16 UTC
Viento 20 kt del oeste

TAF: OISS 160510Z 1606/1712 28008KT 8000 FEW040 TEMPO 1609/1616 28020KT

Observaciones y pronósticos meteorológicos de más de 4000 aeropuertos (mensajes METAR y TAF).

Los puntos amarillos y rojos representan las estaciones disponibles.

Ponga el ratón en el punto deseado para ver el nombre de la estación.

Haga clic para ver las observaciones y los pronósticos meteorológicos.

Para cambiar el mapa : haga clic en los botones verdes con una cruz de color negro para hacer un zoom, en el botón verde con un guión para alejar o en las flechas verdes para mapas adyacentes.


METAR-TAF: